sensor_id;sensor_type;location;lat;lon;timestamp;P1;durP1;ratioP1;P2;durP2;ratioP2
13102;SDS011;52970;46.752;17.108;2023-08-17T00:01:47;10.07;;;9.02;;
13102;SDS011;52970;46.752;17.108;2023-08-17T00:04:13;10.07;;;8.70;;
13102;SDS011;52970;46.752;17.108;2023-08-17T00:06:38;10.50;;;8.77;;
13102;SDS011;52970;46.752;17.108;2023-08-17T00:09:03;9.65;;;8.27;;
13102;SDS011;52970;46.752;17.108;2023-08-17T00:11:29;9.30;;;8.38;;
13102;SDS011;52970;46.752;17.108;2023-08-17T00:13:54;9.70;;;8.50;;
13102;SDS011;52970;46.752;17.108;2023-08-17T00:16:19;10.05;;;8.00;;
13102;SDS011;52970;46.752;17.108;2023-08-17T00:18:44;8.80;;;7.90;;
13102;SDS011;52970;46.752;17.108;2023-08-17T00:21:10;9.10;;;7.80;;
13102;SDS011;52970;46.752;17.108;2023-08-17T00:23:35;9.25;;;8.35;;
13102;SDS011;52970;46.752;17.108;2023-08-17T00:26:00;8.75;;;7.70;;
13102;SDS011;52970;46.752;17.108;2023-08-17T00:28:25;9.50;;;8.52;;
13102;SDS011;52970;46.752;17.108;2023-08-17T00:30:51;9.43;;;7.85;;
13102;SDS011;52970;46.752;17.108;2023-08-17T00:33:16;8.30;;;7.35;;
13102;SDS011;52970;46.752;17.108;2023-08-17T00:35:42;8.20;;;7.25;;
13102;SDS011;52970;46.752;17.108;2023-08-17T00:38:07;9.27;;;8.32;;
13102;SDS011;52970;46.752;17.108;2023-08-17T00:40:32;11.02;;;8.18;;
13102;SDS011;52970;46.752;17.108;2023-08-17T00:42:58;9.45;;;8.15;;
13102;SDS011;52970;46.752;17.108;2023-08-17T00:45:23;9.18;;;8.27;;
13102;SDS011;52970;46.752;17.108;2023-08-17T00:47:48;8.40;;;7.00;;
13102;SDS011;52970;46.752;17.108;2023-08-17T00:50:14;8.07;;;7.28;;
13102;SDS011;52970;46.752;17.108;2023-08-17T00:52:40;7.40;;;6.70;;
13102;SDS011;52970;46.752;17.108;2023-08-17T00:55:06;9.85;;;8.95;;
13102;SDS011;52970;46.752;17.108;2023-08-17T00:57:32;8.25;;;7.45;;
13102;SDS011;52970;46.752;17.108;2023-08-17T00:59:58;9.00;;;8.10;;
13102;SDS011;52970;46.752;17.108;2023-08-17T01:02:24;9.85;;;8.88;;
13102;SDS011;52970;46.752;17.108;2023-08-17T01:04:49;8.82;;;7.97;;
13102;SDS011;52970;46.752;17.108;2023-08-17T01:07:15;10.05;;;8.07;;
13102;SDS011;52970;46.752;17.108;2023-08-17T01:09:40;9.18;;;8.35;;
13102;SDS011;52970;46.752;17.108;2023-08-17T01:12:08;10.55;;;9.50;;
13102;SDS011;52970;46.752;17.108;2023-08-17T01:14:43;9.77;;;8.18;;
13102;SDS011;52970;46.752;17.108;2023-08-17T01:17:27;8.73;;;7.93;;
13102;SDS011;52970;46.752;17.108;2023-08-17T01:19:54;12.25;;;9.30;;
13102;SDS011;52970;46.752;17.108;2023-08-17T01:22:21;9.07;;;8.13;;
13102;SDS011;52970;46.752;17.108;2023-08-17T01:24:46;9.20;;;8.30;;
13102;SDS011;52970;46.752;17.108;2023-08-17T01:27:12;9.85;;;9.02;;
13102;SDS011;52970;46.752;17.108;2023-08-17T01:29:37;8.75;;;7.95;;
13102;SDS011;52970;46.752;17.108;2023-08-17T01:34:27;9.55;;;8.55;;
13102;SDS011;52970;46.752;17.108;2023-08-17T01:36:56;10.13;;;9.13;;
13102;SDS011;52970;46.752;17.108;2023-08-17T01:39:23;10.43;;;9.40;;
13102;SDS011;52970;46.752;17.108;2023-08-17T01:41:49;9.73;;;8.82;;
13102;SDS011;52970;46.752;17.108;2023-08-17T01:44:16;12.00;;;9.70;;
13102;SDS011;52970;46.752;17.108;2023-08-17T01:46:42;8.98;;;8.20;;
13102;SDS011;52970;46.752;17.108;2023-08-17T01:49:07;9.68;;;8.57;;
13102;SDS011;52970;46.752;17.108;2023-08-17T01:51:32;9.65;;;8.85;;
13102;SDS011;52970;46.752;17.108;2023-08-17T01:53:58;10.45;;;9.43;;
13102;SDS011;52970;46.752;17.108;2023-08-17T01:56:23;9.48;;;8.68;;
13102;SDS011;52970;46.752;17.108;2023-08-17T01:58:48;10.43;;;9.40;;
13102;SDS011;52970;46.752;17.108;2023-08-17T02:01:13;11.70;;;9.07;;
13102;SDS011;52970;46.752;17.108;2023-08-17T02:03:38;9.00;;;8.10;;
13102;SDS011;52970;46.752;17.108;2023-08-17T02:06:04;10.30;;;9.38;;
13102;SDS011;52970;46.752;17.108;2023-08-17T02:08:29;10.83;;;9.57;;
13102;SDS011;52970;46.752;17.108;2023-08-17T02:10:54;10.93;;;9.82;;
13102;SDS011;52970;46.752;17.108;2023-08-17T02:13:20;10.43;;;9.43;;
13102;SDS011;52970;46.752;17.108;2023-08-17T02:15:46;10.23;;;7.68;;
13102;SDS011;52970;46.752;17.108;2023-08-17T02:18:11;9.48;;;7.88;;
13102;SDS011;52970;46.752;17.108;2023-08-17T02:20:37;9.05;;;8.23;;
13102;SDS011;52970;46.752;17.108;2023-08-17T02:23:02;10.00;;;9.10;;
13102;SDS011;52970;46.752;17.108;2023-08-17T02:25:27;9.98;;;8.52;;
13102;SDS011;52970;46.752;17.108;2023-08-17T02:28:00;10.75;;;9.68;;
13102;SDS011;52970;46.752;17.108;2023-08-17T02:30:25;11.63;;;10.02;;
13102;SDS011;52970;46.752;17.108;2023-08-17T02:32:50;10.98;;;9.13;;
13102;SDS011;52970;46.752;17.108;2023-08-17T02:35:15;8.85;;;8.07;;
13102;SDS011;52970;46.752;17.108;2023-08-17T02:37:41;11.77;;;9.02;;
13102;SDS011;52970;46.752;17.108;2023-08-17T02:40:06;10.57;;;9.52;;
13102;SDS011;52970;46.752;17.108;2023-08-17T02:42:32;8.20;;;7.40;;
13102;SDS011;52970;46.752;17.108;2023-08-17T02:44:57;10.80;;;9.52;;
13102;SDS011;52970;46.752;17.108;2023-08-17T02:47:22;8.40;;;7.55;;
13102;SDS011;52970;46.752;17.108;2023-08-17T02:49:47;9.57;;;8.02;;
13102;SDS011;52970;46.752;17.108;2023-08-17T02:52:14;15.60;;;8.77;;
13102;SDS011;52970;46.752;17.108;2023-08-17T02:54:39;8.73;;;7.93;;
13102;SDS011;52970;46.752;17.108;2023-08-17T02:57:05;10.75;;;8.88;;
13102;SDS011;52970;46.752;17.108;2023-08-17T02:59:30;9.18;;;8.30;;
13102;SDS011;52970;46.752;17.108;2023-08-17T03:01:55;10.30;;;8.13;;
13102;SDS011;52970;46.752;17.108;2023-08-17T03:04:21;8.70;;;7.60;;
13102;SDS011;52970;46.752;17.108;2023-08-17T03:06:46;9.10;;;7.80;;
13102;SDS011;52970;46.752;17.108;2023-08-17T03:09:11;9.63;;;7.65;;
13102;SDS011;52970;46.752;17.108;2023-08-17T03:11:36;11.05;;;9.98;;
13102;SDS011;52970;46.752;17.108;2023-08-17T03:14:02;11.20;;;9.90;;
13102;SDS011;52970;46.752;17.108;2023-08-17T03:16:28;10.88;;;9.82;;
13102;SDS011;52970;46.752;17.108;2023-08-17T03:18:55;8.52;;;7.75;;
13102;SDS011;52970;46.752;17.108;2023-08-17T03:21:20;9.23;;;8.20;;
13102;SDS011;52970;46.752;17.108;2023-08-17T03:23:45;13.13;;;9.73;;
13102;SDS011;52970;46.752;17.108;2023-08-17T03:26:10;13.05;;;10.68;;
13102;SDS011;52970;46.752;17.108;2023-08-17T03:28:36;9.93;;;8.93;;
13102;SDS011;52970;46.752;17.108;2023-08-17T03:31:02;9.98;;;9.02;;
13102;SDS011;52970;46.752;17.108;2023-08-17T03:33:28;10.38;;;9.38;;
13102;SDS011;52970;46.752;17.108;2023-08-17T03:35:53;9.65;;;8.43;;
13102;SDS011;52970;46.752;17.108;2023-08-17T03:38:18;8.48;;;7.78;;
13102;SDS011;52970;46.752;17.108;2023-08-17T03:40:43;7.97;;;7.18;;
13102;SDS011;52970;46.752;17.108;2023-08-17T03:43:09;8.00;;;7.22;;
13102;SDS011;52970;46.752;17.108;2023-08-17T03:45:34;10.50;;;9.25;;
13102;SDS011;52970;46.752;17.108;2023-08-17T03:47:59;8.10;;;7.35;;
13102;SDS011;52970;46.752;17.108;2023-08-17T03:50:25;9.27;;;8.38;;
13102;SDS011;52970;46.752;17.108;2023-08-17T03:52:51;9.82;;;8.85;;
13102;SDS011;52970;46.752;17.108;2023-08-17T03:55:16;8.73;;;7.93;;
13102;SDS011;52970;46.752;17.108;2023-08-17T03:57:42;8.63;;;7.82;;
13102;SDS011;52970;46.752;17.108;2023-08-17T04:00:07;7.97;;;7.00;;
13102;SDS011;52970;46.752;17.108;2023-08-17T04:02:33;8.27;;;7.40;;
13102;SDS011;52970;46.752;17.108;2023-08-17T04:04:58;10.68;;;9.63;;
13102;SDS011;52970;46.752;17.108;2023-08-17T04:07:23;12.00;;;10.02;;
13102;SDS011;52970;46.752;17.108;2023-08-17T04:09:48;11.48;;;9.88;;
13102;SDS011;52970;46.752;17.108;2023-08-17T04:12:14;12.43;;;11.13;;
13102;SDS011;52970;46.752;17.108;2023-08-17T04:14:39;11.30;;;10.10;;
13102;SDS011;52970;46.752;17.108;2023-08-17T04:17:04;11.18;;;10.15;;
13102;SDS011;52970;46.752;17.108;2023-08-17T04:19:30;9.25;;;8.35;;
13102;SDS011;52970;46.752;17.108;2023-08-17T04:21:55;9.27;;;8.38;;
13102;SDS011;52970;46.752;17.108;2023-08-17T04:24:20;10.60;;;9.57;;
13102;SDS011;52970;46.752;17.108;2023-08-17T04:26:45;11.55;;;10.43;;
13102;SDS011;52970;46.752;17.108;2023-08-17T04:29:11;10.73;;;9.65;;
13102;SDS011;52970;46.752;17.108;2023-08-17T04:31:37;11.32;;;9.15;;
13102;SDS011;52970;46.752;17.108;2023-08-17T04:34:02;9.55;;;8.35;;
13102;SDS011;52970;46.752;17.108;2023-08-17T04:36:27;11.15;;;10.05;;
13102;SDS011;52970;46.752;17.108;2023-08-17T04:38:53;11.35;;;10.25;;
13102;SDS011;52970;46.752;17.108;2023-08-17T04:41:18;10.47;;;9.47;;
13102;SDS011;52970;46.752;17.108;2023-08-17T04:43:43;11.50;;;10.40;;
13102;SDS011;52970;46.752;17.108;2023-08-17T04:46:11;10.02;;;9.15;;
13102;SDS011;52970;46.752;17.108;2023-08-17T04:48:36;11.63;;;10.45;;
13102;SDS011;52970;46.752;17.108;2023-08-17T04:51:02;10.20;;;9.30;;
13102;SDS011;52970;46.752;17.108;2023-08-17T04:53:27;10.45;;;9.55;;
13102;SDS011;52970;46.752;17.108;2023-08-17T04:55:53;10.52;;;9.52;;
13102;SDS011;52970;46.752;17.108;2023-08-17T04:58:18;10.35;;;9.25;;
13102;SDS011;52970;46.752;17.108;2023-08-17T05:00:43;9.88;;;8.88;;
13102;SDS011;52970;46.752;17.108;2023-08-17T05:03:09;10.43;;;9.38;;
13102;SDS011;52970;46.752;17.108;2023-08-17T05:05:34;11.10;;;10.07;;
13102;SDS011;52970;46.752;17.108;2023-08-17T05:08:01;11.23;;;10.15;;
13102;SDS011;52970;46.752;17.108;2023-08-17T05:10:26;10.95;;;9.95;;
13102;SDS011;52970;46.752;17.108;2023-08-17T05:12:51;10.25;;;9.30;;
13102;SDS011;52970;46.752;17.108;2023-08-17T05:15:16;10.10;;;9.20;;
13102;SDS011;52970;46.752;17.108;2023-08-17T05:17:41;9.80;;;9.00;;
13102;SDS011;52970;46.752;17.108;2023-08-17T05:20:07;10.95;;;9.98;;
13102;SDS011;52970;46.752;17.108;2023-08-17T05:22:33;10.57;;;9.68;;
13102;SDS011;52970;46.752;17.108;2023-08-17T05:24:58;10.82;;;9.73;;
13102;SDS011;52970;46.752;17.108;2023-08-17T05:27:23;9.98;;;9.15;;
13102;SDS011;52970;46.752;17.108;2023-08-17T05:29:49;10.40;;;9.50;;
13102;SDS011;52970;46.752;17.108;2023-08-17T05:32:14;9.77;;;8.85;;
13102;SDS011;52970;46.752;17.108;2023-08-17T05:34:39;10.07;;;9.07;;
13102;SDS011;52970;46.752;17.108;2023-08-17T05:37:04;10.18;;;9.27;;
13102;SDS011;52970;46.752;17.108;2023-08-17T05:39:29;10.38;;;9.50;;
13102;SDS011;52970;46.752;17.108;2023-08-17T05:41:55;11.02;;;9.88;;
13102;SDS011;52970;46.752;17.108;2023-08-17T05:44:20;10.45;;;9.35;;
13102;SDS011;52970;46.752;17.108;2023-08-17T05:46:45;11.25;;;10.18;;
13102;SDS011;52970;46.752;17.108;2023-08-17T05:49:10;10.82;;;9.73;;
13102;SDS011;52970;46.752;17.108;2023-08-17T05:51:36;10.80;;;9.80;;
13102;SDS011;52970;46.752;17.108;2023-08-17T05:54:01;10.10;;;9.10;;
13102;SDS011;52970;46.752;17.108;2023-08-17T05:56:26;10.63;;;9.48;;
13102;SDS011;52970;46.752;17.108;2023-08-17T05:58:53;10.77;;;9.77;;
13102;SDS011;52970;46.752;17.108;2023-08-17T06:01:18;10.80;;;9.88;;
13102;SDS011;52970;46.752;17.108;2023-08-17T06:03:43;10.60;;;9.57;;
13102;SDS011;52970;46.752;17.108;2023-08-17T06:06:09;11.07;;;9.70;;
13102;SDS011;52970;46.752;17.108;2023-08-17T06:08:34;10.40;;;9.50;;
13102;SDS011;52970;46.752;17.108;2023-08-17T06:10:59;11.38;;;9.52;;
13102;SDS011;52970;46.752;17.108;2023-08-17T06:13:25;10.52;;;9.52;;
13102;SDS011;52970;46.752;17.108;2023-08-17T06:15:50;10.30;;;9.23;;
13102;SDS011;52970;46.752;17.108;2023-08-17T06:18:15;10.98;;;10.05;;
13102;SDS011;52970;46.752;17.108;2023-08-17T06:20:41;10.63;;;9.63;;
13102;SDS011;52970;46.752;17.108;2023-08-17T06:23:06;11.02;;;9.32;;
13102;SDS011;52970;46.752;17.108;2023-08-17T06:25:31;9.95;;;9.05;;
13102;SDS011;52970;46.752;17.108;2023-08-17T06:27:56;10.68;;;9.60;;
13102;SDS011;52970;46.752;17.108;2023-08-17T06:30:22;9.07;;;8.23;;
13102;SDS011;52970;46.752;17.108;2023-08-17T06:32:47;11.15;;;9.90;;
13102;SDS011;52970;46.752;17.108;2023-08-17T06:35:12;11.45;;;10.38;;
13102;SDS011;52970;46.752;17.108;2023-08-17T06:37:38;10.47;;;9.57;;
13102;SDS011;52970;46.752;17.108;2023-08-17T06:40:03;10.55;;;9.55;;
13102;SDS011;52970;46.752;17.108;2023-08-17T06:42:31;9.95;;;8.98;;
13102;SDS011;52970;46.752;17.108;2023-08-17T06:44:56;10.02;;;9.00;;
13102;SDS011;52970;46.752;17.108;2023-08-17T06:47:21;9.93;;;9.00;;
13102;SDS011;52970;46.752;17.108;2023-08-17T06:49:47;10.45;;;9.52;;
13102;SDS011;52970;46.752;17.108;2023-08-17T06:52:12;10.43;;;9.30;;
13102;SDS011;52970;46.752;17.108;2023-08-17T06:54:37;9.55;;;8.75;;
13102;SDS011;52970;46.752;17.108;2023-08-17T06:57:02;9.02;;;8.10;;
13102;SDS011;52970;46.752;17.108;2023-08-17T06:59:28;9.93;;;9.02;;
13102;SDS011;52970;46.752;17.108;2023-08-17T07:01:53;9.57;;;8.68;;
13102;SDS011;52970;46.752;17.108;2023-08-17T07:04:18;9.50;;;8.70;;
13102;SDS011;52970;46.752;17.108;2023-08-17T07:06:43;9.77;;;8.85;;
13102;SDS011;52970;46.752;17.108;2023-08-17T07:09:09;10.00;;;9.10;;
13102;SDS011;52970;46.752;17.108;2023-08-17T07:11:37;9.77;;;7.50;;
13102;SDS011;52970;46.752;17.108;2023-08-17T07:14:03;9.27;;;8.27;;
13102;SDS011;52970;46.752;17.108;2023-08-17T07:16:28;9.70;;;8.35;;
13102;SDS011;52970;46.752;17.108;2023-08-17T07:18:53;8.05;;;7.30;;
13102;SDS011;52970;46.752;17.108;2023-08-17T07:21:19;8.13;;;7.33;;
13102;SDS011;52970;46.752;17.108;2023-08-17T07:23:44;8.15;;;7.45;;
13102;SDS011;52970;46.752;17.108;2023-08-17T07:26:10;8.63;;;7.82;;
13102;SDS011;52970;46.752;17.108;2023-08-17T07:28:35;8.02;;;7.32;;
13102;SDS011;52970;46.752;17.108;2023-08-17T07:31:00;8.35;;;7.55;;
13102;SDS011;52970;46.752;17.108;2023-08-17T07:33:25;8.23;;;7.22;;
13102;SDS011;52970;46.752;17.108;2023-08-17T07:35:51;8.00;;;7.00;;
13102;SDS011;52970;46.752;17.108;2023-08-17T07:38:18;7.72;;;7.03;;
13102;SDS011;52970;46.752;17.108;2023-08-17T07:40:43;7.97;;;7.28;;
13102;SDS011;52970;46.752;17.108;2023-08-17T07:43:08;8.57;;;7.68;;
13102;SDS011;52970;46.752;17.108;2023-08-17T07:45:34;9.05;;;8.15;;
13102;SDS011;52970;46.752;17.108;2023-08-17T07:48:00;8.82;;;7.82;;
13102;SDS011;52970;46.752;17.108;2023-08-17T07:50:26;9.60;;;7.65;;
13102;SDS011;52970;46.752;17.108;2023-08-17T07:52:51;7.72;;;7.10;;
13102;SDS011;52970;46.752;17.108;2023-08-17T07:55:16;8.45;;;7.72;;
13102;SDS011;52970;46.752;17.108;2023-08-17T07:57:41;9.03;;;8.23;;
13102;SDS011;52970;46.752;17.108;2023-08-17T08:00:07;6.72;;;6.18;;
13102;SDS011;52970;46.752;17.108;2023-08-17T08:02:32;6.50;;;5.88;;
13102;SDS011;52970;46.752;17.108;2023-08-17T08:04:58;6.60;;;5.97;;
13102;SDS011;52970;46.752;17.108;2023-08-17T08:07:23;6.53;;;5.50;;
13102;SDS011;52970;46.752;17.108;2023-08-17T08:09:48;7.35;;;6.55;;
13102;SDS011;52970;46.752;17.108;2023-08-17T08:12:14;6.45;;;5.85;;
13102;SDS011;52970;46.752;17.108;2023-08-17T08:14:39;6.37;;;5.77;;
13102;SDS011;52970;46.752;17.108;2023-08-17T08:17:04;7.57;;;6.00;;
13102;SDS011;52970;46.752;17.108;2023-08-17T08:19:29;6.53;;;5.87;;
13102;SDS011;52970;46.752;17.108;2023-08-17T08:21:55;7.90;;;6.40;;
13102;SDS011;52970;46.752;17.108;2023-08-17T08:24:20;7.00;;;6.40;;
13102;SDS011;52970;46.752;17.108;2023-08-17T08:26:45;6.93;;;6.23;;
13102;SDS011;52970;46.752;17.108;2023-08-17T08:29:10;9.07;;;6.70;;
13102;SDS011;52970;46.752;17.108;2023-08-17T08:31:36;6.63;;;6.03;;
13102;SDS011;52970;46.752;17.108;2023-08-17T08:34:01;7.23;;;6.53;;
13102;SDS011;52970;46.752;17.108;2023-08-17T08:36:26;6.70;;;6.10;;
13102;SDS011;52970;46.752;17.108;2023-08-17T08:38:51;7.68;;;6.28;;
13102;SDS011;52970;46.752;17.108;2023-08-17T08:41:16;6.38;;;5.78;;
13102;SDS011;52970;46.752;17.108;2023-08-17T08:43:42;7.43;;;6.13;;
13102;SDS011;52970;46.752;17.108;2023-08-17T08:46:07;7.20;;;6.00;;
13102;SDS011;52970;46.752;17.108;2023-08-17T08:48:33;8.18;;;7.07;;
13102;SDS011;52970;46.752;17.108;2023-08-17T08:50:59;6.68;;;6.07;;
13102;SDS011;52970;46.752;17.108;2023-08-17T08:53:31;6.20;;;5.70;;
13102;SDS011;52970;46.752;17.108;2023-08-17T08:55:58;7.45;;;5.70;;
13102;SDS011;52970;46.752;17.108;2023-08-17T08:58:24;6.50;;;5.90;;
13102;SDS011;52970;46.752;17.108;2023-08-17T09:00:50;6.72;;;6.05;;
13102;SDS011;52970;46.752;17.108;2023-08-17T09:03:15;6.07;;;5.50;;
13102;SDS011;52970;46.752;17.108;2023-08-17T09:05:44;7.00;;;6.30;;
13102;SDS011;52970;46.752;17.108;2023-08-17T09:08:09;6.55;;;5.55;;
13102;SDS011;52970;46.752;17.108;2023-08-17T09:10:36;6.68;;;5.50;;
13102;SDS011;52970;46.752;17.108;2023-08-17T09:13:02;5.55;;;5.05;;
13102;SDS011;52970;46.752;17.108;2023-08-17T09:15:28;6.05;;;5.47;;
13102;SDS011;52970;46.752;17.108;2023-08-17T09:17:53;5.57;;;5.07;;
13102;SDS011;52970;46.752;17.108;2023-08-17T09:23:03;5.55;;;5.15;;
13102;SDS011;52970;46.752;17.108;2023-08-17T09:25:30;5.25;;;4.85;;
13102;SDS011;52970;46.752;17.108;2023-08-17T09:27:56;5.80;;;5.28;;
13102;SDS011;52970;46.752;17.108;2023-08-17T09:30:22;5.97;;;4.88;;
13102;SDS011;52970;46.752;17.108;2023-08-17T09:32:47;5.40;;;4.90;;
13102;SDS011;52970;46.752;17.108;2023-08-17T09:35:12;4.80;;;4.40;;
13102;SDS011;52970;46.752;17.108;2023-08-17T09:37:37;5.67;;;5.17;;
13102;SDS011;52970;46.752;17.108;2023-08-17T09:40:03;5.07;;;4.57;;
13102;SDS011;52970;46.752;17.108;2023-08-17T09:42:28;5.15;;;4.45;;
13102;SDS011;52970;46.752;17.108;2023-08-17T09:44:54;4.63;;;4.22;;
13102;SDS011;52970;46.752;17.108;2023-08-17T09:47:20;6.18;;;4.13;;
13102;SDS011;52970;46.752;17.108;2023-08-17T09:49:52;4.57;;;4.15;;
13102;SDS011;52970;46.752;17.108;2023-08-17T09:52:21;4.22;;;3.92;;
13102;SDS011;52970;46.752;17.108;2023-08-17T09:54:47;4.40;;;4.00;;
13102;SDS011;52970;46.752;17.108;2023-08-17T09:57:12;4.57;;;4.10;;
13102;SDS011;52970;46.752;17.108;2023-08-17T09:59:38;4.35;;;3.97;;
13102;SDS011;52970;46.752;17.108;2023-08-17T10:02:03;4.80;;;4.37;;
13102;SDS011;52970;46.752;17.108;2023-08-17T10:04:30;4.43;;;4.05;;
13102;SDS011;52970;46.752;17.108;2023-08-17T10:06:58;4.50;;;4.05;;
13102;SDS011;52970;46.752;17.108;2023-08-17T10:09:25;4.70;;;4.30;;
13102;SDS011;52970;46.752;17.108;2023-08-17T10:11:51;5.20;;;4.80;;
13102;SDS011;52970;46.752;17.108;2023-08-17T10:14:18;5.18;;;4.63;;
13102;SDS011;52970;46.752;17.108;2023-08-17T10:16:45;5.75;;;4.57;;
13102;SDS011;52970;46.752;17.108;2023-08-17T10:19:18;5.50;;;4.70;;
13102;SDS011;52970;46.752;17.108;2023-08-17T10:21:48;5.88;;;4.63;;
13102;SDS011;52970;46.752;17.108;2023-08-17T10:24:15;4.95;;;4.55;;
13102;SDS011;52970;46.752;17.108;2023-08-17T10:26:42;4.97;;;3.97;;
13102;SDS011;52970;46.752;17.108;2023-08-17T10:29:08;4.95;;;4.55;;
13102;SDS011;52970;46.752;17.108;2023-08-17T10:31:33;4.90;;;4.50;;
13102;SDS011;52970;46.752;17.108;2023-08-17T10:33:59;5.50;;;4.78;;
13102;SDS011;52970;46.752;17.108;2023-08-17T10:36:24;5.35;;;4.80;;
13102;SDS011;52970;46.752;17.108;2023-08-17T10:41:45;5.72;;;5.22;;
13102;SDS011;52970;46.752;17.108;2023-08-17T10:44:10;5.10;;;4.65;;
13102;SDS011;52970;46.752;17.108;2023-08-17T10:46:37;5.28;;;4.78;;
13102;SDS011;52970;46.752;17.108;2023-08-17T10:49:06;5.78;;;4.97;;
13102;SDS011;52970;46.752;17.108;2023-08-17T10:51:32;5.38;;;4.50;;
13102;SDS011;52970;46.752;17.108;2023-08-17T10:54:03;5.20;;;4.80;;
13102;SDS011;52970;46.752;17.108;2023-08-17T10:56:29;4.90;;;4.50;;
13102;SDS011;52970;46.752;17.108;2023-08-17T10:58:58;4.95;;;4.53;;
13102;SDS011;52970;46.752;17.108;2023-08-17T11:01:39;6.75;;;4.53;;
13102;SDS011;52970;46.752;17.108;2023-08-17T11:04:38;4.50;;;4.13;;
13102;SDS011;52970;46.752;17.108;2023-08-17T11:07:00;5.38;;;4.88;;
13102;SDS011;52970;46.752;17.108;2023-08-17T11:09:26;5.13;;;4.63;;
13102;SDS011;52970;46.752;17.108;2023-08-17T11:11:52;5.60;;;5.10;;
13102;SDS011;52970;46.752;17.108;2023-08-17T11:14:18;5.00;;;4.50;;
13102;SDS011;52970;46.752;17.108;2023-08-17T11:16:46;5.40;;;4.90;;
13102;SDS011;52970;46.752;17.108;2023-08-17T11:19:11;5.53;;;5.03;;
13102;SDS011;52970;46.752;17.108;2023-08-17T11:21:36;5.13;;;4.65;;
13102;SDS011;52970;46.752;17.108;2023-08-17T11:24:01;5.20;;;4.70;;
13102;SDS011;52970;46.752;17.108;2023-08-17T11:26:27;5.07;;;4.57;;
13102;SDS011;52970;46.752;17.108;2023-08-17T11:28:53;5.07;;;4.68;;
13102;SDS011;52970;46.752;17.108;2023-08-17T11:31:18;5.07;;;4.60;;
13102;SDS011;52970;46.752;17.108;2023-08-17T11:33:43;4.57;;;4.18;;
13102;SDS011;52970;46.752;17.108;2023-08-17T11:36:09;5.07;;;4.57;;
13102;SDS011;52970;46.752;17.108;2023-08-17T11:38:36;4.97;;;4.50;;
13102;SDS011;52970;46.752;17.108;2023-08-17T11:41:03;4.63;;;4.22;;
13102;SDS011;52970;46.752;17.108;2023-08-17T11:43:28;4.45;;;4.05;;
13102;SDS011;52970;46.752;17.108;2023-08-17T11:45:54;4.88;;;4.47;;
13102;SDS011;52970;46.752;17.108;2023-08-17T11:48:20;5.10;;;4.68;;
13102;SDS011;52970;46.752;17.108;2023-08-17T11:50:45;4.95;;;4.55;;
13102;SDS011;52970;46.752;17.108;2023-08-17T11:53:10;4.72;;;4.43;;
13102;SDS011;52970;46.752;17.108;2023-08-17T11:55:36;4.63;;;4.20;;
13102;SDS011;52970;46.752;17.108;2023-08-17T11:58:02;5.97;;;5.38;;
13102;SDS011;52970;46.752;17.108;2023-08-17T12:00:27;5.47;;;4.97;;
13102;SDS011;52970;46.752;17.108;2023-08-17T12:02:52;5.90;;;5.20;;
13102;SDS011;52970;46.752;17.108;2023-08-17T12:05:24;6.47;;;5.18;;
13102;SDS011;52970;46.752;17.108;2023-08-17T12:07:55;5.97;;;5.47;;
13102;SDS011;52970;46.752;17.108;2023-08-17T12:10:20;7.18;;;5.55;;
13102;SDS011;52970;46.752;17.108;2023-08-17T12:12:47;6.28;;;5.30;;
13102;SDS011;52970;46.752;17.108;2023-08-17T12:15:13;5.70;;;5.13;;
13102;SDS011;52970;46.752;17.108;2023-08-17T12:17:45;7.22;;;5.50;;
13102;SDS011;52970;46.752;17.108;2023-08-17T12:20:15;6.03;;;5.43;;
13102;SDS011;52970;46.752;17.108;2023-08-17T12:22:40;7.50;;;4.85;;
13102;SDS011;52970;46.752;17.108;2023-08-17T12:25:05;9.47;;;5.60;;
13102;SDS011;52970;46.752;17.108;2023-08-17T12:27:31;5.50;;;5.10;;
13102;SDS011;52970;46.752;17.108;2023-08-17T12:29:56;5.50;;;4.90;;
13102;SDS011;52970;46.752;17.108;2023-08-17T12:32:22;5.93;;;5.13;;
13102;SDS011;52970;46.752;17.108;2023-08-17T12:34:47;5.63;;;4.90;;
13102;SDS011;52970;46.752;17.108;2023-08-17T12:37:17;5.25;;;4.75;;
13102;SDS011;52970;46.752;17.108;2023-08-17T12:39:43;5.00;;;4.50;;
13102;SDS011;52970;46.752;17.108;2023-08-17T12:42:08;4.97;;;4.57;;
13102;SDS011;52970;46.752;17.108;2023-08-17T12:44:33;5.70;;;5.00;;
13102;SDS011;52970;46.752;17.108;2023-08-17T12:46:58;6.13;;;5.63;;
13102;SDS011;52970;46.752;17.108;2023-08-17T12:49:25;5.95;;;5.45;;
13102;SDS011;52970;46.752;17.108;2023-08-17T12:51:50;5.43;;;4.87;;
13102;SDS011;52970;46.752;17.108;2023-08-17T12:54:16;4.90;;;4.50;;
13102;SDS011;52970;46.752;17.108;2023-08-17T12:56:41;5.90;;;5.23;;
13102;SDS011;52970;46.752;17.108;2023-08-17T12:59:06;5.00;;;4.60;;
13102;SDS011;52970;46.752;17.108;2023-08-17T13:01:32;5.43;;;4.90;;
13102;SDS011;52970;46.752;17.108;2023-08-17T13:03:58;9.25;;;4.85;;
13102;SDS011;52970;46.752;17.108;2023-08-17T13:06:23;5.47;;;5.00;;
13102;SDS011;52970;46.752;17.108;2023-08-17T13:08:49;5.45;;;5.05;;
13102;SDS011;52970;46.752;17.108;2023-08-17T13:11:14;5.70;;;5.20;;
13102;SDS011;52970;46.752;17.108;2023-08-17T13:13:39;5.38;;;4.93;;
13102;SDS011;52970;46.752;17.108;2023-08-17T13:16:04;5.30;;;4.90;;
13102;SDS011;52970;46.752;17.108;2023-08-17T13:18:30;5.90;;;5.40;;
13102;SDS011;52970;46.752;17.108;2023-08-17T13:20:55;5.68;;;5.07;;
13102;SDS011;52970;46.752;17.108;2023-08-17T13:23:20;6.60;;;5.33;;
13102;SDS011;52970;46.752;17.108;2023-08-17T13:25:45;5.70;;;5.10;;
13102;SDS011;52970;46.752;17.108;2023-08-17T13:28:11;5.95;;;5.45;;
13102;SDS011;52970;46.752;17.108;2023-08-17T13:30:37;7.35;;;5.00;;
13102;SDS011;52970;46.752;17.108;2023-08-17T13:33:02;5.50;;;5.03;;
13102;SDS011;52970;46.752;17.108;2023-08-17T13:35:28;5.75;;;5.32;;
13102;SDS011;52970;46.752;17.108;2023-08-17T13:37:53;6.30;;;5.70;;
13102;SDS011;52970;46.752;17.108;2023-08-17T13:40:18;5.68;;;5.18;;
13102;SDS011;52970;46.752;17.108;2023-08-17T13:42:44;5.60;;;5.10;;
13102;SDS011;52970;46.752;17.108;2023-08-17T13:45:09;5.53;;;5.03;;
13102;SDS011;52970;46.752;17.108;2023-08-17T13:47:34;5.50;;;5.00;;
13102;SDS011;52970;46.752;17.108;2023-08-17T13:50:00;6.00;;;5.40;;
13102;SDS011;52970;46.752;17.108;2023-08-17T13:52:25;5.60;;;5.10;;
13102;SDS011;52970;46.752;17.108;2023-08-17T13:54:50;6.47;;;5.60;;
13102;SDS011;52970;46.752;17.108;2023-08-17T13:57:15;5.53;;;5.03;;
13102;SDS011;52970;46.752;17.108;2023-08-17T13:59:41;6.07;;;5.57;;
13102;SDS011;52970;46.752;17.108;2023-08-17T14:02:07;6.30;;;5.70;;
13102;SDS011;52970;46.752;17.108;2023-08-17T14:04:32;6.07;;;5.57;;
13102;SDS011;52970;46.752;17.108;2023-08-17T14:06:57;5.90;;;5.40;;
13102;SDS011;52970;46.752;17.108;2023-08-17T14:09:22;5.53;;;5.10;;
13102;SDS011;52970;46.752;17.108;2023-08-17T14:11:48;5.38;;;4.75;;
13102;SDS011;52970;46.752;17.108;2023-08-17T14:14:13;5.90;;;5.40;;
13102;SDS011;52970;46.752;17.108;2023-08-17T14:16:38;5.93;;;4.75;;
13102;SDS011;52970;46.752;17.108;2023-08-17T14:19:03;6.13;;;5.17;;
13102;SDS011;52970;46.752;17.108;2023-08-17T14:21:29;6.30;;;5.70;;
13102;SDS011;52970;46.752;17.108;2023-08-17T14:23:54;5.97;;;5.40;;
13102;SDS011;52970;46.752;17.108;2023-08-17T14:26:19;5.93;;;5.03;;
13102;SDS011;52970;46.752;17.108;2023-08-17T14:28:44;5.80;;;5.30;;
13102;SDS011;52970;46.752;17.108;2023-08-17T14:31:09;5.77;;;5.20;;